Time;durP1;ratioP1;P1;durP2;ratioP2;P2;SDS_P1;SDS_P2;PMS_P1;PMS_P2;Temp;Humidity;BMP_temperature;BMP_pressure;BME280_temperature;BME280_humidity;BME280_pressure;Samples;Min_cycle;Max_cycle;Signal;HPM_P1;HPM_P2
2021/06/15 00:00:31;;;;;;;2.47;1.27;;;;;;;24.98;30.04;94426.13;5136129;27;20043;-59
2021/06/15 00:02:58;;;;;;;2.22;1.13;;;;;;;24.74;30.24;94432.16;5136682;27;20062;-42
2021/06/15 00:05:25;;;;;;;3.50;1.15;;;;;;;24.58;30.24;94430.53;5131652;27;20729;-42
2021/06/15 00:07:52;;;;;;;3.53;0.90;;;;;;;24.26;31.02;94424.97;5117682;28;20055;-41
2021/06/15 00:10:21;;;;;;;2.78;0.90;;;;;;;24.30;31.04;94425.00;5117326;28;20039;-43
2021/06/15 00:12:50;;;;;;;4.75;1.15;;;;;;;24.75;30.17;94425.66;5125636;27;20054;-42
2021/06/15 00:15:18;;;;;;;3.22;1.00;;;;;;;24.50;30.49;94420.94;5121195;27;20504;-41
2021/06/15 00:17:46;;;;;;;3.10;1.10;;;;;;;24.13;30.78;94425.59;5117226;28;20043;-43
2021/06/15 00:20:13;;;;;;;3.75;1.13;;;;;;;24.62;30.17;94424.44;5120442;27;20373;-44
2021/06/15 00:22:41;;;;;;;2.03;0.98;;;;;;;24.60;29.89;94416.78;5135186;27;20445;-62
2021/06/15 00:25:09;;;;;;;2.50;1.00;;;;;;;24.49;30.27;94422.09;5117484;28;20082;-43
2021/06/15 00:27:36;;;;;;;2.13;0.90;;;;;;;24.54;30.10;94420.97;5122787;27;20373;-50
2021/06/15 00:30:05;;;;;;;1.48;0.95;;;;;;;25.15;29.23;94414.00;5137588;27;20047;-46
2021/06/15 00:32:32;;;;;;;4.82;1.08;;;;;;;24.65;29.98;94421.00;5131950;27;20043;-57
2021/06/15 00:34:59;;;;;;;2.53;1.10;;;;;;;24.36;30.35;94418.16;5137532;27;20353;-43
2021/06/15 00:37:26;;;;;;;2.88;1.00;;;;;;;24.54;30.21;94428.97;5120500;27;20422;-47
2021/06/15 00:39:54;;;;;;;1.85;0.90;;;;;;;24.72;29.77;94421.84;5116631;28;20044;-43
2021/06/15 00:42:23;;;;;;;2.13;1.00;;;;;;;24.21;30.70;94427.97;5120315;27;20558;-49
2021/06/15 00:44:51;;;;;;;1.77;1.13;;;;;;;24.27;30.54;94426.50;5132834;27;20051;-51
2021/06/15 00:47:18;;;;;;;3.70;1.17;;;;;;;25.14;29.33;94429.28;5137387;27;20050;-43
2021/06/15 00:49:45;;;;;;;2.90;1.02;;;;;;;24.88;29.40;94424.94;5130928;27;20178;-42
2021/06/15 00:52:13;;;;;;;4.63;1.25;;;;;;;24.67;29.97;94432.84;5111149;27;20050;-42
2021/06/15 00:54:42;;;;;;;3.00;1.00;;;;;;;24.63;30.14;94433.97;5125722;27;20039;-45
2021/06/15 00:57:16;;;;;;;4.40;0.95;;;;;;;24.57;29.89;94429.00;5098688;28;20052;-55
2021/06/15 00:59:44;;;;;;;5.07;1.27;;;;;;;23.96;30.70;94430.47;5098561;28;20059;-56
2021/06/15 01:02:12;;;;;;;1.83;0.90;;;;;;;24.46;30.23;94438.88;5118184;27;20058;-55
2021/06/15 01:04:40;;;;;;;2.25;1.20;;;;;;;24.94;29.42;94425.34;5136487;27;20047;-57
2021/06/15 01:07:41;;;;;;;3.05;1.30;;;;;;;24.75;29.55;94434.44;5136134;27;20058;-46
2021/06/15 01:10:29;;;;;;;2.75;1.10;;;;;;;24.15;30.63;94431.34;5137269;27;20055;-46
2021/06/15 01:13:05;;;;;;;3.30;1.05;;;;;;;25.12;29.19;94441.50;5118027;27;20050;-52
2021/06/15 01:15:43;;;;;;;3.30;1.00;;;;;;;24.32;30.08;94438.75;5136640;27;20043;-45
2021/06/15 01:18:16;;;;;;;3.28;1.10;;;;;;;24.53;30.28;94441.56;5136834;27;20047;-44
2021/06/15 01:21:06;;;;;;;4.35;1.00;;;;;;;24.47;30.24;94435.06;5118073;27;20054;-56
2021/06/15 01:23:49;;;;;;;5.03;1.23;;;;;;;24.07;30.93;94443.13;5117939;27;20055;-54
2021/06/15 01:26:48;;;;;;;2.30;0.98;;;;;;;24.62;29.95;94429.78;5136497;27;20070;-43
2021/06/15 01:29:20;;;;;;;4.07;1.17;;;;;;;25.26;28.83;94424.75;5136462;27;20046;-43
2021/06/15 01:31:56;;;;;;;2.63;1.20;;;;;;;24.27;30.30;94425.72;5118256;27;20084;-43
2021/06/15 01:34:29;;;;;;;2.15;1.02;;;;;;;24.45;30.08;94423.94;5117872;27;20039;-42
2021/06/15 01:37:09;;;;;;;1.20;0.80;;;;;;;24.69;29.67;94419.13;5136348;27;20047;-43
2021/06/15 01:39:45;;;;;;;1.98;1.10;;;;;;;25.10;28.57;94412.47;5118352;27;20047;-45
2021/06/15 01:42:31;;;;;;;2.03;1.30;;;;;;;24.92;28.66;94411.59;5119833;27;20392;-46
2021/06/15 01:45:06;;;;;;;2.78;1.40;;;;;;;24.25;29.84;94414.66;5097629;28;20358;-56
2021/06/15 01:47:35;;;;;;;4.05;1.17;;;;;;;24.39;29.78;94414.75;5115715;28;20058;-50
2021/06/15 01:50:06;;;;;;;1.63;1.20;;;;;;;24.77;29.26;94410.78;5082544;27;20043;-43
2021/06/15 01:52:36;;;;;;;3.13;1.35;;;;;;;25.00;28.92;94413.19;5115920;27;20055;-57
2021/06/15 01:55:05;;;;;;;4.90;1.42;;;;;;;24.48;29.57;94422.47;5117856;27;20050;-45
2021/06/15 01:57:43;;;;;;;2.35;1.10;;;;;;;24.38;29.84;94402.53;5117772;27;20053;-56
2021/06/15 02:00:14;;;;;;;3.05;1.20;;;;;;;24.74;29.16;94403.50;5118117;27;20046;-59
2021/06/15 02:02:49;;;;;;;2.67;1.17;;;;;;;24.75;28.80;94398.94;5135511;27;20043;-43
2021/06/15 02:05:28;;;;;;;1.90;1.00;;;;;;;24.60;29.43;94393.50;5117403;27;20047;-53
2021/06/15 02:07:56;;;;;;;3.75;1.20;;;;;;;24.77;29.11;94399.31;5100941;27;20465;-43
2021/06/15 02:10:26;;;;;;;2.05;1.05;;;;;;;25.19;28.48;94396.81;5101166;27;20441;-59
2021/06/15 02:13:07;;;;;;;2.30;1.00;;;;;;;24.56;29.45;94390.06;5102084;28;20047;-43
2021/06/15 02:15:52;;;;;;;2.72;1.00;;;;;;;24.52;29.37;94386.59;5115263;28;20054;-42
2021/06/15 02:18:52;;;;;;;2.50;1.10;;;;;;;25.13;29.08;94384.97;5084249;28;20044;-42
2021/06/15 02:21:31;;;;;;;1.75;1.13;;;;;;;24.93;29.26;94383.72;5128736;27;20052;-42
2021/06/15 02:24:01;;;;;;;2.00;1.17;;;;;;;24.19;30.18;94384.06;5116802;28;20062;-43
2021/06/15 02:26:31;;;;;;;1.83;1.10;;;;;;;24.32;30.02;94384.56;5135721;28;20365;-42
2021/06/15 02:28:59;;;;;;;2.30;1.13;;;;;;;24.53;29.80;94390.81;5100574;28;20050;-43
2021/06/15 02:31:41;;;;;;;2.38;1.10;;;;;;;24.16;30.28;94390.16;5135910;28;20043;-46
2021/06/15 02:34:14;;;;;;;2.78;1.35;;;;;;;23.98;30.59;94388.13;5100008;28;20058;-58
2021/06/15 02:36:49;;;;;;;4.32;1.63;;;;;;;24.79;29.42;94395.13;5101577;28;20050;-61
2021/06/15 02:39:22;;;;;;;4.28;1.20;;;;;;;24.29;30.18;94392.19;5100436;28;20039;-49
2021/06/15 02:41:52;;;;;;;6.03;1.42;;;;;;;24.01;31.04;94391.97;5117129;28;20051;-43
2021/06/15 02:44:22;;;;;;;1.80;1.10;;;;;;;24.65;30.02;94402.31;5099735;28;20540;-52
2021/06/15 02:46:57;;;;;;;3.13;1.35;;;;;;;24.66;29.78;94398.50;5101175;28;20059;-55
2021/06/15 02:49:26;;;;;;;2.58;1.10;;;;;;;24.31;30.41;94394.47;5117301;28;20039;-43
2021/06/15 02:52:15;;;;;;;3.40;1.30;;;;;;;25.20;29.14;94395.66;5116495;28;20392;-42
2021/06/15 02:54:49;;;;;;;5.18;1.20;;;;;;;24.05;31.25;94397.31;5116663;28;20050;-41
2021/06/15 02:57:18;;;;;;;3.40;1.10;;;;;;;24.52;30.32;94402.63;5096949;28;20473;-43
2021/06/15 02:59:45;;;;;;;1.70;1.10;;;;;;;25.10;29.39;94404.44;5114601;28;20051;-56
2021/06/15 03:02:13;;;;;;;2.50;1.05;;;;;;;24.84;29.79;94405.47;5096535;28;20050;-53
2021/06/15 03:04:46;;;;;;;2.83;1.20;;;;;;;24.48;30.00;94409.88;5133482;28;20039;-42
2021/06/15 03:07:15;;;;;;;3.83;1.13;;;;;;;24.27;30.21;94407.78;5116984;28;20382;-42
2021/06/15 03:09:43;;;;;;;3.28;1.40;;;;;;;24.56;29.87;94403.41;5135067;28;20047;-42
2021/06/15 03:12:23;;;;;;;2.95;1.20;;;;;;;24.24;30.08;94405.09;5116414;28;20047;-48
2021/06/15 03:14:59;;;;;;;2.35;1.10;;;;;;;24.11;30.58;94409.97;5099066;28;20039;-51
2021/06/15 03:17:27;;;;;;;2.13;1.10;;;;;;;23.84;31.40;94422.72;5117013;28;20051;-42
2021/06/15 03:20:08;;;;;;;3.30;1.27;;;;;;;24.55;29.85;94438.53;5098030;28;20051;-42
2021/06/15 03:23:06;;;;;;;3.97;1.20;;;;;;;24.10;30.60;94442.38;5126766;28;20458;-42
2021/06/15 03:25:35;;;;;;;1.95;1.10;;;;;;;24.37;30.46;94443.75;5112993;28;20370;-42
2021/06/15 03:28:09;;;;;;;3.57;1.13;;;;;;;24.33;30.29;94460.91;5104623;28;20461;-41
2021/06/15 03:30:39;;;;;;;3.40;1.05;;;;;;;24.92;29.66;94465.06;5099466;28;20442;-44
2021/06/15 03:33:09;;;;;;;1.50;1.20;;;;;;;24.94;30.10;94462.00;5115076;27;20047;-52
2021/06/15 03:35:41;;;;;;;3.90;1.13;;;;;;;24.98;30.23;94468.91;5132319;27;20035;-56
2021/06/15 03:38:11;;;;;;;;;;;;;;;25.09;30.03;94471.69;5100358;28;20050;-42
2021/06/15 03:40:45;;;;;;;2.17;1.30;;;;;;;24.50;30.81;94471.72;5133882;27;19919;-42
2021/06/15 03:43:13;;;;;;;3.15;1.60;;;;;;;24.25;31.21;94470.75;5099935;28;20056;-42
2021/06/15 03:45:42;;;;;;;3.70;1.27;;;;;;;24.89;29.89;94466.59;5134785;27;20043;-43
2021/06/15 03:48:10;;;;;;;2.15;1.40;;;;;;;24.04;31.29;94465.22;5120363;27;20047;-42
2021/06/15 03:50:38;;;;;;;3.75;1.52;;;;;;;24.05;31.76;94461.41;5112943;28;20074;-43
2021/06/15 03:53:08;;;;;;;4.07;1.40;;;;;;;24.67;30.41;94454.25;5117548;28;20370;-43
2021/06/15 03:55:37;;;;;;;2.75;1.40;;;;;;;24.07;31.49;94449.22;5133797;27;20050;-42
2021/06/15 03:58:07;;;;;;;3.85;1.58;;;;;;;24.06;31.41;94444.25;5138259;27;20039;-42
2021/06/15 04:00:37;;;;;;;3.65;1.38;;;;;;;24.30;30.88;94457.06;5138404;27;20054;-43
2021/06/15 04:03:07;;;;;;;2.17;1.40;;;;;;;24.05;31.40;94467.53;5120087;27;20043;-43
2021/06/15 04:05:36;;;;;;;3.90;1.25;;;;;;;24.80;30.23;94465.41;5102495;27;20054;-42
2021/06/15 04:08:06;;;;;;;4.43;1.67;;;;;;;24.46;30.87;94476.28;5119801;27;20046;-43
2021/06/15 04:10:34;;;;;;;4.15;1.30;;;;;;;24.76;30.60;94484.09;5138010;27;20050;-43
2021/06/15 04:13:02;;;;;;;3.55;1.60;;;;;;;24.26;31.83;94488.28;5119780;27;20050;-42
2021/06/15 04:15:32;;;;;;;3.67;1.25;;;;;;;24.28;31.80;94480.72;5119248;27;20491;-42
2021/06/15 04:18:02;;;;;;;3.38;1.50;;;;;;;24.65;31.00;94488.59;5119698;27;20432;-42
2021/06/15 04:20:33;;;;;;;2.50;1.40;;;;;;;25.08;30.13;94494.97;5119549;27;20043;-67
2021/06/15 04:23:02;;;;;;;4.05;1.63;;;;;;;24.21;31.62;94486.75;5101641;28;20055;-46
2021/06/15 04:25:36;;;;;;;3.00;1.40;;;;;;;24.76;31.25;94494.03;5110066;27;20047;-43
2021/06/15 04:28:03;;;;;;;4.00;1.70;;;;;;;24.93;31.09;94488.00;5100763;27;20066;-42
2021/06/15 04:30:34;;;;;;;4.82;1.92;;;;;;;25.91;29.14;94488.78;5113265;27;20051;-52
2021/06/15 04:33:03;;;;;;;2.83;1.60;;;;;;;25.02;30.63;94491.13;5099237;28;20057;-42
2021/06/15 04:35:39;;;;;;;3.95;1.50;;;;;;;24.71;30.68;94489.00;5118673;27;20365;-44
2021/06/15 04:38:29;;;;;;;3.97;1.60;;;;;;;24.99;30.33;94496.47;5118401;27;20050;-42
2021/06/15 04:41:04;;;;;;;2.47;1.25;;;;;;;25.23;30.50;94492.34;5126548;27;20039;-46
2021/06/15 04:43:46;;;;;;;3.30;1.50;;;;;;;25.58;29.28;94492.50;5108702;28;20055;-54
2021/06/15 04:46:18;;;;;;;;;;;;;;;25.46;30.81;94487.47;5126879;27;20055;-44
2021/06/15 04:49:01;;;;;;;3.42;1.85;;;;;;;27.19;27.77;94490.63;5124818;27;19918;-47
2021/06/15 04:51:28;;;;;;;2.78;1.63;;;;;;;26.54;28.67;94498.00;5130574;27;20044;-45
2021/06/15 04:53:58;;;;;;;3.80;2.13;;;;;;;26.80;28.47;94491.44;5098796;28;20040;-53
2021/06/15 04:56:28;;;;;;;8.10;2.20;;;;;;;26.92;28.06;94495.66;5133044;27;20357;-47
2021/06/15 04:59:01;;;;;;;4.00;2.95;;;;;;;26.89;29.11;94489.16;5117078;28;20047;-48
2021/06/15 05:01:28;;;;;;;5.90;3.10;;;;;;;27.04;28.39;94490.66;5112169;27;20765;-49
2021/06/15 05:03:56;;;;;;;4.68;3.20;;;;;;;27.33;27.79;94496.72;5118584;27;20058;-47
2021/06/15 05:06:24;;;;;;;5.50;3.45;;;;;;;27.55;27.57;94492.00;5098485;28;20062;-48
2021/06/15 05:08:58;;;;;;;3.92;2.83;;;;;;;28.57;25.71;94499.81;5098709;28;20048;-46
2021/06/15 05:11:26;;;;;;;3.05;2.33;;;;;;;28.64;25.18;94509.75;5129187;27;20057;-48
2021/06/15 05:13:54;;;;;;;3.25;2.30;;;;;;;28.80;24.93;94502.66;5136625;27;20055;-48
2021/06/15 05:16:23;;;;;;;2.75;2.05;;;;;;;28.51;25.31;94502.16;5118476;27;20039;-49
2021/06/15 05:18:50;;;;;;;3.90;1.92;;;;;;;28.90;24.62;94505.69;5136694;27;20050;-49
2021/06/15 05:21:24;;;;;;;2.63;1.90;;;;;;;28.33;25.59;94500.78;5135895;27;20441;-50
2021/06/15 05:23:58;;;;;;;5.03;1.95;;;;;;;28.60;24.97;94504.38;5118531;27;20499;-50
2021/06/15 05:26:25;;;;;;;5.95;2.10;;;;;;;28.79;24.85;94508.44;5126460;27;20062;-51
2021/06/15 05:28:52;;;;;;;3.42;1.65;;;;;;;26.26;28.39;94512.13;5098150;28;20040;-48
2021/06/15 05:31:19;;;;;;;2.92;1.60;;;;;;;26.06;29.08;94524.38;5127394;27;20055;-48
2021/06/15 05:33:46;;;;;;;4.00;1.90;;;;;;;27.00;27.35;94515.97;5136326;27;20046;-48
2021/06/15 05:36:13;;;;;;;4.15;1.88;;;;;;;26.03;28.88;94527.81;5135661;27;20358;-54
2021/06/15 05:38:42;;;;;;;1.98;1.63;;;;;;;26.99;28.25;94530.53;5135859;27;20035;-51
2021/06/15 05:41:09;;;;;;;2.65;1.88;;;;;;;26.61;28.55;94532.09;5136080;27;20046;-49
2021/06/15 05:43:36;;;;;;;3.80;1.90;;;;;;;26.60;28.23;94536.69;5118373;27;20073;-50
2021/06/15 05:46:03;;;;;;;2.97;1.63;;;;;;;26.82;28.50;94542.03;5136319;27;20051;-48
2021/06/15 05:48:30;;;;;;;2.42;1.48;;;;;;;27.15;27.42;94522.06;5135693;27;20476;-54
2021/06/15 05:50:57;;;;;;;2.20;1.80;;;;;;;26.31;28.81;94530.53;5135324;27;21948;-50
2021/06/15 05:53:26;;;;;;;3.90;2.00;;;;;;;25.70;29.23;94535.00;5135580;27;20054;-49
2021/06/15 05:55:55;;;;;;;3.40;1.70;;;;;;;26.39;28.56;94532.09;5118236;27;20390;-49
2021/06/15 05:58:22;;;;;;;3.00;1.80;;;;;;;26.61;28.04;94535.53;5117969;27;20437;-52
2021/06/15 06:00:50;;;;;;;3.20;1.85;;;;;;;27.19;27.78;94522.81;5117526;27;20058;-52
2021/06/15 06:03:23;;;;;;;3.45;2.00;;;;;;;27.18;27.72;94526.66;5135813;27;20043;-52
2021/06/15 06:08:36;;;;;;;4.07;2.08;;;;;;;27.67;26.88;94538.41;5135604;27;20042;-50
2021/06/15 06:11:03;;;;;;;3.92;1.90;;;;;;;27.59;27.25;94524.97;5135684;27;20354;-50
2021/06/15 06:13:30;;;;;;;3.47;1.83;;;;;;;27.31;28.01;94528.53;5135670;27;20054;-52
2021/06/15 06:16:01;;;;;;;2.63;2.00;;;;;;;24.48;32.93;94522.09;5127107;27;20043;-49
2021/06/15 06:18:29;;;;;;;5.15;2.30;;;;;;;22.58;35.75;94520.22;5120947;27;20055;-54
2021/06/15 06:20:56;;;;;;;2.08;1.88;;;;;;;23.36;35.25;94529.31;5120728;27;20442;-49
2021/06/15 06:23:23;;;;;;;2.83;2.30;;;;;;;22.34;38.13;94526.69;5127800;27;20499;-45
2021/06/15 06:25:50;;;;;;;4.60;2.92;;;;;;;23.34;35.88;94518.22;5114964;28;20056;-51
2021/06/15 06:28:17;;;;;;;3.10;2.30;;;;;;;23.47;35.34;94528.69;5120141;28;20051;-48
2021/06/15 06:30:44;;;;;;;3.63;2.42;;;;;;;21.94;38.17;94521.06;5135389;28;20059;-48
2021/06/15 06:33:12;;;;;;;4.25;2.60;;;;;;;22.22;37.08;94526.13;5135579;28;20039;-48
2021/06/15 06:35:39;;;;;;;9.43;7.82;;;;;;;21.81;37.89;94531.09;5120347;28;20050;-54
2021/06/15 06:38:06;;;;;;;5.47;4.18;;;;;;;22.35;37.02;94525.56;5100009;28;20054;-48
2021/06/15 06:40:34;;;;;;;3.47;3.15;;;;;;;24.10;34.00;94530.50;5135319;28;20376;-50
2021/06/15 06:43:01;;;;;;;4.93;2.50;;;;;;;26.58;29.29;94527.50;5113407;28;20047;-48
2021/06/15 06:45:28;;;;;;;6.68;3.08;;;;;;;23.68;33.69;94524.38;5114966;28;20050;-54
2021/06/15 06:47:55;;;;;;;7.13;2.60;;;;;;;23.78;33.52;94528.28;5116092;28;20106;-57
2021/06/15 06:50:22;;;;;;;3.53;2.10;;;;;;;26.35;29.93;94525.97;5123552;28;20058;-48
2021/06/15 06:52:49;;;;;;;2.53;2.15;;;;;;;28.15;27.35;94528.53;5118458;28;20446;-48
2021/06/15 06:55:20;;;;;;;5.28;4.07;;;;;;;24.97;32.63;94528.13;5114857;28;20051;-54
2021/06/15 06:57:48;;;;;;;4.80;3.80;;;;;;;24.65;33.36;94522.56;5114839;28;20047;-56
2021/06/15 07:00:16;;;;;;;5.18;3.08;;;;;;;24.30;33.25;94510.47;5114776;28;20051;-49
2021/06/15 07:02:43;;;;;;;4.35;3.08;;;;;;;26.51;30.78;94506.81;5126476;28;20044;-47
2021/06/15 07:05:11;;;;;;;7.82;2.80;;;;;;;26.88;29.66;94506.41;5117464;27;20054;-56
2021/06/15 07:07:38;;;;;;;10.13;3.03;;;;;;;25.53;31.57;94503.59;5118716;28;20074;-53
2021/06/15 07:10:06;;;;;;;4.25;2.70;;;;;;;24.73;33.32;94505.47;5128804;27;20055;-52
2021/06/15 07:12:33;;;;;;;3.88;2.45;;;;;;;28.46;27.04;94504.53;5130186;27;20050;-48
2021/06/15 07:15:00;;;;;;;6.20;2.28;;;;;;;29.99;25.06;94497.47;5118790;27;20059;-51
2021/06/15 07:17:27;;;;;;;3.90;2.45;;;;;;;30.15;24.31;94499.56;5118577;27;20122;-50
2021/06/15 07:19:54;;;;;;;9.27;7.00;;;;;;;31.11;23.06;94496.06;5120053;27;20047;-50
2021/06/15 07:22:22;;;;;;;5.72;4.85;;;;;;;26.82;29.09;94486.50;5137295;27;20051;-54
2021/06/15 07:24:49;;;;;;;3.55;2.70;;;;;;;25.79;30.61;94500.63;5118556;27;20836;-53
2021/06/15 07:27:16;;;;;;;4.80;2.60;;;;;;;26.36;31.14;94499.94;5118294;28;20047;-47
2021/06/15 07:29:43;;;;;;;3.80;2.72;;;;;;;26.57;30.89;94493.81;5133412;27;20054;-52
2021/06/15 07:32:10;;;;;;;3.58;2.53;;;;;;;26.28;30.63;94488.41;5138493;27;20377;-49
2021/06/15 07:34:37;;;;;;;3.20;2.53;;;;;;;25.46;32.99;94492.84;5128606;27;20473;-47
2021/06/15 07:37:05;;;;;;;6.88;2.67;;;;;;;25.40;32.47;94494.34;5118241;28;20074;-54
2021/06/15 07:39:32;;;;;;;3.20;2.28;;;;;;;24.71;34.00;94489.00;5131338;27;20054;-49
2021/06/15 07:41:59;;;;;;;2.78;2.42;;;;;;;25.27;32.83;94490.50;5137390;27;20047;-49
2021/06/15 07:44:27;;;;;;;5.53;2.20;;;;;;;26.63;29.83;94476.19;5138607;27;20057;-49
2021/06/15 07:46:55;;;;;;;4.38;2.40;;;;;;;27.90;27.85;94474.19;5133796;27;20036;-47
2021/06/15 07:49:23;;;;;;;5.72;2.40;;;;;;;25.27;32.25;94474.44;5124136;27;20450;-48
2021/06/15 07:51:50;;;;;;;4.30;2.60;;;;;;;29.85;25.17;94463.41;5130222;27;20052;-48
2021/06/15 07:54:17;;;;;;;2.67;2.00;;;;;;;29.97;24.90;94462.84;5117940;28;20059;-49
2021/06/15 07:56:45;;;;;;;2.47;2.15;;;;;;;31.26;22.53;94456.84;5117914;27;20047;-53
2021/06/15 07:59:12;;;;;;;2.47;1.77;;;;;;;27.87;27.00;94458.88;5117787;28;20047;-51
2021/06/15 08:01:39;;;;;;;4.00;1.88;;;;;;;27.45;28.55;94455.25;5130567;27;20057;-52
2021/06/15 08:04:07;;;;;;;4.38;2.00;;;;;;;26.20;30.84;94470.03;5120489;27;20050;-49
2021/06/15 08:06:35;;;;;;;4.90;2.30;;;;;;;24.41;33.63;94473.91;5117596;28;20044;-49
2021/06/15 08:09:02;;;;;;;3.33;2.22;;;;;;;27.47;29.37;94460.22;5117566;28;20050;-48
2021/06/15 08:11:29;;;;;;;3.55;2.05;;;;;;;31.23;23.99;94451.50;5121755;27;20052;-50
2021/06/15 08:13:56;;;;;;;3.63;2.10;;;;;;;28.88;26.74;94456.88;5117263;27;20054;-55
2021/06/15 08:16:23;;;;;;;2.90;2.20;;;;;;;28.19;27.53;94453.25;5117165;27;20453;-47
2021/06/15 08:18:51;;;;;;;3.50;2.10;;;;;;;26.37;31.22;94450.56;5117438;28;20044;-47
2021/06/15 08:21:18;;;;;;;4.35;2.20;;;;;;;27.73;29.00;94459.72;5127364;27;20066;-52
2021/06/15 08:23:45;;;;;;;3.03;1.85;;;;;;;27.12;29.17;94453.09;5137656;27;20353;-57
2021/06/15 08:26:12;;;;;;;2.13;1.73;;;;;;;27.77;28.52;94446.25;5131417;27;20043;-48
2021/06/15 08:28:39;;;;;;;3.38;2.13;;;;;;;25.66;31.98;94442.41;5117216;28;20052;-52
2021/06/15 08:31:06;;;;;;;15.68;13.80;;;;;;;30.43;24.88;94447.88;5121151;27;20330;-47
2021/06/15 08:33:33;;;;;;;4.53;3.40;;;;;;;29.33;25.83;94444.84;5117158;27;20051;-51
2021/06/15 08:36:01;;;;;;;2.88;2.25;;;;;;;28.00;28.47;94435.75;5117073;28;20048;-55
2021/06/15 08:38:28;;;;;;;5.30;2.22;;;;;;;27.45;29.50;94438.38;5099232;27;20361;-47
2021/06/15 08:40:55;;;;;;;4.03;2.13;;;;;;;27.43;29.79;94444.13;5122920;27;20365;-51
2021/06/15 08:43:22;;;;;;;3.65;1.90;;;;;;;27.90;28.52;94436.59;5137312;27;20043;-47
2021/06/15 08:45:50;;;;;;;2.55;1.80;;;;;;;26.29;31.07;94439.06;5132303;27;20062;-49
2021/06/15 08:48:17;;;;;;;3.97;1.95;;;;;;;26.97;30.03;94441.59;5119244;27;20043;-50
2021/06/15 08:50:46;;;;;;;2.72;1.98;;;;;;;26.75;29.51;94440.91;5136278;27;20042;-48
2021/06/15 08:53:14;;;;;;;3.88;1.80;;;;;;;25.86;29.55;94434.84;5124630;27;20048;-51
2021/06/15 08:55:47;;;;;;;3.03;1.67;;;;;;;26.54;28.57;94435.56;5116622;28;20040;-55
2021/06/15 08:58:50;;;;;;;2.45;1.58;;;;;;;27.01;28.75;94437.78;5116540;28;20054;-47
2021/06/15 09:01:17;;;;;;;2.40;1.77;;;;;;;29.56;24.87;94428.03;5124888;27;20039;-49
2021/06/15 09:03:44;;;;;;;2.28;1.42;;;;;;;29.17;25.02;94433.91;5136017;27;20042;-51
2021/06/15 09:06:11;;;;;;;3.17;1.67;;;;;;;27.43;26.57;94430.72;5118527;27;20054;-54
2021/06/15 09:08:59;;;;;;;1.70;1.58;;;;;;;26.65;28.22;94436.34;5136264;27;20449;-50
2021/06/15 09:11:27;;;;;;;5.55;1.63;;;;;;;26.07;29.52;94424.13;5136187;27;20054;-48
2021/06/15 09:13:55;;;;;;;2.47;1.73;;;;;;;28.97;25.29;94419.53;5105535;28;20050;-47
2021/06/15 09:16:33;;;;;;;2.25;1.25;;;;;;;26.69;29.08;94419.09;5116670;28;20043;-51
2021/06/15 09:19:01;;;;;;;3.38;1.40;;;;;;;27.14;28.36;94413.22;5116366;28;20047;-48
2021/06/15 09:21:31;;;;;;;3.00;1.20;;;;;;;28.56;25.79;94412.22;5129034;27;20066;-51
2021/06/15 09:24:27;;;;;;;3.20;1.33;;;;;;;26.57;28.68;94414.16;5135476;27;20038;-55
2021/06/15 09:26:56;;;;;;;3.92;1.40;;;;;;;26.70;28.79;94420.63;5096593;28;20054;-48
2021/06/15 09:29:46;;;;;;;3.75;1.40;;;;;;;26.45;28.86;94419.13;5116079;28;20046;-53
2021/06/15 09:32:28;;;;;;;2.00;1.38;;;;;;;26.59;27.84;94421.81;5131260;27;20330;-51
2021/06/15 09:35:02;;;;;;;2.10;1.10;;;;;;;26.78;28.17;94410.63;5117032;27;20070;-55
2021/06/15 09:37:38;;;;;;;1.50;1.00;;;;;;;26.79;28.27;94412.16;5115974;28;20040;-49
2021/06/15 09:40:17;;;;;;;1.75;1.25;;;;;;;26.13;28.71;94391.22;5115815;28;20751;-52
2021/06/15 09:43:10;;;;;;;1.45;1.13;;;;;;;26.70;28.34;94401.09;5134918;27;20043;-56
2021/06/15 09:45:43;;;;;;;3.42;1.55;;;;;;;26.94;27.90;94402.91;5136354;27;20381;-55
2021/06/15 09:48:35;;;;;;;3.70;1.60;;;;;;;26.13;29.62;94406.53;5136226;27;20480;-55
2021/06/15 09:51:09;;;;;;;2.72;1.30;;;;;;;25.86;29.57;94398.09;5135139;27;20051;-52
2021/06/15 09:53:38;;;;;;;3.58;1.38;;;;;;;27.45;27.12;94401.56;5135979;27;20070;-49
2021/06/15 09:56:10;;;;;;;5.15;1.55;;;;;;;26.50;28.60;94402.66;5135981;27;20050;-50
2021/06/15 09:59:10;;;;;;;3.38;1.58;;;;;;;26.21;28.94;94402.69;5136243;27;20441;-50
2021/06/15 10:01:43;;;;;;;2.00;1.50;;;;;;;28.54;25.48;94398.44;5076559;27;20055;-56
2021/06/15 10:04:17;;;;;;;3.15;1.42;;;;;;;27.37;26.81;94392.03;5115495;28;20361;-49
2021/06/15 10:06:57;;;;;;;1.83;1.30;;;;;;;26.53;28.43;94399.22;5115234;28;20041;-47
2021/06/15 10:09:31;;;;;;;2.20;1.15;;;;;;;28.85;25.29;94401.97;5115439;27;20043;-49
2021/06/15 10:12:06;;;;;;;4.32;1.50;;;;;;;25.60;29.28;94399.22;5120869;27;20052;-52
2021/06/15 10:14:37;;;;;;;3.97;1.40;;;;;;;25.11;30.38;94402.53;5115382;28;20388;-55
2021/06/15 10:17:04;;;;;;;2.50;1.35;;;;;;;25.20;30.98;94401.03;5115248;28;20044;-54
2021/06/15 10:19:31;;;;;;;3.40;1.30;;;;;;;25.46;30.31;94396.50;5115303;28;20055;-51
2021/06/15 10:21:59;;;;;;;3.28;1.25;;;;;;;26.19;28.81;94404.97;5132710;27;20058;-53
2021/06/15 10:24:27;;;;;;;1.60;1.10;;;;;;;26.22;29.21;94393.50;5118865;28;20051;-53
2021/06/15 10:26:54;;;;;;;1.38;1.08;;;;;;;27.01;27.68;94392.19;5115082;28;20051;-51
2021/06/15 10:29:22;;;;;;;3.53;1.38;;;;;;;26.12;29.14;94399.63;5115127;28;20062;-52
2021/06/15 10:31:52;;;;;;;2.17;1.38;;;;;;;27.27;27.39;94395.50;5124947;28;20047;-50
2021/06/15 10:34:45;;;;;;;1.52;1.20;;;;;;;27.92;26.83;94396.66;5117780;28;20043;-47
2021/06/15 10:37:32;;;;;;;2.08;1.30;;;;;;;27.70;26.40;94388.00;5102358;28;20039;-46
2021/06/15 10:40:01;;;;;;;1.77;1.20;;;;;;;27.50;27.35;94376.97;5118710;28;20051;-49
2021/06/15 10:42:28;;;;;;;3.55;1.20;;;;;;;27.10;28.28;94378.38;5134263;27;20050;-54
2021/06/15 10:45:13;;;;;;;2.95;1.00;;;;;;;26.32;28.61;94371.28;5104622;27;20047;-51
2021/06/15 10:47:41;;;;;;;1.80;1.10;;;;;;;27.58;26.61;94366.94;5139684;27;20356;-54
2021/06/15 10:50:10;;;;;;;4.18;1.40;;;;;;;26.10;28.99;94365.19;5121280;27;20043;-55
2021/06/15 10:53:00;;;;;;;5.05;1.25;;;;;;;27.82;26.68;94370.63;5138690;27;20051;-50
2021/06/15 10:55:50;;;;;;;2.13;1.55;;;;;;;27.89;27.22;94370.59;5139606;27;20046;-50
2021/06/15 10:58:37;;;;;;;2.75;1.38;;;;;;;26.52;28.71;94362.84;5139650;27;20054;-52
2021/06/15 11:01:17;;;;;;;2.08;1.02;;;;;;;27.64;26.70;94355.44;5139238;27;20047;-51
2021/06/15 11:03:52;;;;;;;3.72;1.40;;;;;;;25.72;29.42;94350.66;5118712;28;20047;-48
2021/06/15 11:06:40;;;;;;;2.72;1.25;;;;;;;26.60;27.93;94353.63;5118781;28;20043;-47
2021/06/15 11:09:13;;;;;;;1.98;1.13;;;;;;;25.89;29.31;94348.38;5108018;28;20054;-52
2021/06/15 11:11:42;;;;;;;2.90;1.25;;;;;;;26.12;29.16;94346.06;5126140;27;20050;-50
2021/06/15 11:14:13;;;;;;;4.47;1.40;;;;;;;25.46;30.84;94359.03;5115576;27;20473;-49
2021/06/15 11:16:44;;;;;;;2.17;1.20;;;;;;;26.90;27.80;94345.84;5139323;27;20070;-54
2021/06/15 11:19:11;;;;;;;2.97;1.50;;;;;;;27.26;27.24;94346.44;5139075;27;20062;-50
2021/06/15 11:21:44;;;;;;;5.22;1.42;;;;;;;26.69;28.43;94343.25;5133404;27;20070;-49
2021/06/15 11:24:18;;;;;;;3.47;1.20;;;;;;;26.65;27.91;94340.59;5139103;27;20046;-51
2021/06/15 11:26:47;;;;;;;1.77;1.27;;;;;;;26.14;28.40;94343.75;5138800;27;20054;-55
2021/06/15 11:29:35;;;;;;;3.15;1.08;;;;;;;25.45;29.96;94342.22;5121167;27;20043;-49
2021/06/15 11:32:18;;;;;;;3.80;1.30;;;;;;;26.18;28.91;94339.16;5138301;27;20050;-49
2021/06/15 11:34:54;;;;;;;4.20;1.48;;;;;;;25.80;29.64;94340.75;5138640;27;20433;-54
2021/06/15 11:37:33;;;;;;;1.88;1.27;;;;;;;27.08;27.21;94350.41;5138532;27;20043;-50
2021/06/15 11:40:27;;;;;;;2.28;1.33;;;;;;;27.01;27.83;94340.44;5138116;27;20047;-48
2021/06/15 11:43:07;;;;;;;2.70;1.60;;;;;;;26.41;29.17;94331.47;5137487;27;20054;-49
2021/06/15 11:45:43;;;;;;;3.35;1.60;;;;;;;25.87;29.52;94339.97;5138356;27;20492;-49
2021/06/15 11:48:37;;;;;;;2.10;1.40;;;;;;;25.52;29.71;94330.78;5137995;27;20046;-52
2021/06/15 11:51:09;;;;;;;4.85;1.20;;;;;;;27.05;27.46;94330.47;5129142;27;20058;-51
2021/06/15 11:53:37;;;;;;;;;;;;;;;26.17;28.51;94318.09;5138539;27;20688;-49
2021/06/15 11:56:07;;;;;;;1.80;1.10;;;;;;;28.98;24.59;94327.63;5138351;27;20328;-49
2021/06/15 11:58:44;;;;;;;3.10;1.20;;;;;;;26.67;27.96;94332.91;5120449;27;20065;-51